Jfe N5 Yahata Maru — JL6477 — position and weather

sailwx.info

Track history (hours):
 
Tides and Currents Weather Stations Pressure Air Temp Water Temp Dewpoint Dewpoint Depression Visibility Wind Speed Wind Dir Waves Ship Positions

Jfe N5 Yahata Maru

Last reported at 2018-May-25 15:42 UTC. Time now 2018-May-25 18:34 UTC.
Position N 34°26' E 134°08'.

Length 149 m; draft 3.2 m.

Type: Other ship. MMSI: 431400594.

Date/timePositionNaut miles runAvg speedWind from/ knotsBaromVisibWave heightAir tempDewpointWater temp
2018-May-25 15:42N 34°26' E 134°08'3 8.4
2018-May-25 15:22N 34°25' E 134°11'3 8.2
2018-May-25 15:00N 34°24' E 134°14'6 9.0
2018-May-25 14:23N 34°25' E 134°21'4 9.2
2018-May-25 14:00N 34°26' E 134°25'4 8.9
2018-May-25 13:30N 34°28' E 134°30'10 9.4
2018-May-25 12:29N 34°32' E 134°40'4 8.9
2018-May-25 12:00N 34°33' E 134°45'510.6
2018-May-25 11:30N 34°35' E 134°51'511.0
2018-May-25 11:00N 34°37' E 134°57'5 9.9
2018-May-25 10:30N 34°36' E 135°03'4 8.9
2018-May-25 10:00N 34°36' E 135°09'5 9.7
2018-May-25 09:31N 34°37' E 135°15'4 8.8
2018-May-25 09:00N 34°40' E 135°18'4 7.2
2018-May-25 08:30N 34°43' E 135°21'0 0.6
2018-May-25 08:00N 34°43' E 135°21'0 0.0
2018-May-25 07:30N 34°43' E 135°21'0 0.0
2018-May-25 06:28N 34°43' E 135°21'0 0.0
2018-May-25 05:52N 34°43' E 135°21'0 0.0
2018-May-25 05:28N 34°43' E 135°21'0 0.0
2018-May-25 04:52N 34°43' E 135°21'0 0.0
2018-May-25 04:28N 34°43' E 135°21'0 0.1
2018-May-25 04:00N 34°43' E 135°21'1 2.1
2018-May-25 03:30N 34°42' E 135°21'1 3.0
2018-May-25 03:00N 34°41' E 135°22'1 2.8
2018-May-25 02:30N 34°39' E 135°21'3 5.9
2018-May-25 02:00N 34°37' E 135°21'4 8.0
2018-May-25 01:30N 34°35' E 135°25'0 0.3
2018-May-25 01:00N 34°35' E 135°26'0 0.0
2018-May-25 00:30N 34°35' E 135°26'0 0.0
2018-May-25 00:00N 34°35' E 135°26'2 3.4
2018-May-24 23:30N 34°36' E 135°24'4 8.3
2018-May-24 23:00N 34°36' E 135°19'1 1.2
2018-May-24 22:30N 34°36' E 135°18'0 0.0
2018-May-24 22:00N 34°36' E 135°18'0 0.0
2018-May-24 21:30N 34°36' E 135°18'0 0.0
2018-May-24 21:00N 34°36' E 135°18'0 0.0
2018-May-24 20:30N 34°36' E 135°18'0 0.0
2018-May-24 20:00N 34°36' E 135°18'0 0.0
2018-May-24 19:30N 34°36' E 135°18'0 0.0
2018-May-24 19:00N 34°36' E 135°18'0 0.0
2018-May-24 18:27N 34°36' E 135°18'0 0.0
2018-May-24 18:00N 34°36' E 135°18'0 0.0
2018-May-24 17:30N 34°36' E 135°18'0 0.0
2018-May-24 17:00N 34°36' E 135°18'0 0.0
2018-May-24 16:27N 34°36' E 135°18'0 0.1
2018-May-24 16:00N 34°36' E 135°18'0 0.1
2018-May-24 15:30N 34°36' E 135°18'0 0.1
2018-May-24 15:00N 34°36' E 135°18'0 0.0
2018-May-24 14:24N 34°35' E 135°18'0 0.1
2018-May-24 13:45N 34°36' E 135°18'0 0.0
2018-May-24 13:30N 34°36' E 135°18'35 7.9
2018-May-24 09:00N 34°03' E 135°00'510.1
2018-May-24 08:30N 33°58' E 135°01'510.0
2018-May-24 07:59N 33°53' E 135°02'228 5.0
2018-May-22 10:41N 34°60' E 139°27'1 6.8
2018-May-22 10:28N 35°01' E 139°28'3 6.5
2018-May-22 10:00N 35°02' E 139°31'4 7.2
2018-May-22 09:30N 35°04' E 139°35'4 8.7
2018-May-22 09:00N 35°06' E 139°40'510.0
2018-May-22 08:30N 35°10' E 139°44'5 9.2
2018-May-22 08:00N 35°14' E 139°46'5 9.4
2018-May-22 07:31N 35°18' E 139°44'5 9.2
2018-May-22 07:01N 35°23' E 139°42'4 8.8
2018-May-22 06:31N 35°27' E 139°43'1 2.4
2018-May-22 06:01N 35°28' E 139°43'0 0.0
2018-May-22 05:28N 35°28' E 139°43'0 0.0
2018-May-22 04:59N 35°28' E 139°43'0 0.0
2018-May-22 04:28N 35°28' E 139°43'0 0.0
2018-May-22 03:58N 35°28' E 139°43'0 0.0
2018-May-22 03:25N 35°28' E 139°43'0 0.0
2018-May-22 02:58N 35°28' E 139°43'0 0.0
2018-May-22 02:28N 35°28' E 139°43'0 0.0
2018-May-22 01:58N 35°28' E 139°43'0 0.0
2018-May-22 01:25N 35°28' E 139°43'0 0.0
2018-May-22 00:58N 35°28' E 139°43'0 0.0
2018-May-22 00:28N 35°28' E 139°43'0 0.0
2018-May-21 23:58N 35°28' E 139°43'0 0.2
2018-May-21 23:30N 35°28' E 139°43'2 4.6
2018-May-21 23:01N 35°27' E 139°45'4 7.5
2018-May-21 22:31N 35°28' E 139°49'4 8.7
2018-May-21 22:00N 35°31' E 139°54'4 8.5
2018-May-21 21:29N 35°32' E 139°59'6 0.5
2018-May-21 08:31N 35°33' E 140°06'0 6.2
2018-May-21 08:30N 35°33' E 140°06'4 7.0
2018-May-21 08:00N 35°33' E 140°02'5 9.5
2018-May-21 07:27N 35°31' E 139°56'4 9.4
2018-May-21 07:00N 35°29' E 139°52'5 9.5
2018-May-21 06:30N 35°25' E 139°48'5 9.1
2018-May-21 06:00N 35°21' E 139°45'4 8.2
2018-May-21 05:31N 35°17' E 139°45'4 7.9
2018-May-21 05:00N 35°14' E 139°47'4 8.1
2018-May-21 04:30N 35°10' E 139°46'4 8.7
2018-May-21 04:00N 35°06' E 139°44'5 9.1
2018-May-21 03:30N 35°03' E 139°39'511.0
2018-May-21 03:00N 34°60' E 139°34'611.2
2018-May-21 02:29N 34°56' E 139°28'229 5.8
2018-May-19 10:46N 33°48' E 135°04'3 9.0
2018-May-19 10:28N 33°50' E 135°02'5 9.0
2018-May-19 09:58N 33°54' E 134°58'4 8.9
2018-May-19 09:29N 33°57' E 134°55'2110.1
2018-May-19 07:26N 34°13' E 134°39'510.2
2018-May-19 06:54N 34°17' E 134°34'4 9.5
2018-May-19 06:29N 34°18' E 134°30'5 9.5
2018-May-19 06:00N 34°20' E 134°25'10 0.4
2018-May-18 04:46N 34°24' E 134°14'6 8.9
2018-May-18 04:06N 34°25' E 134°21'1 9.7
2018-May-18 03:57N 34°25' E 134°22'7 9.7
2018-May-18 03:13N 34°28' E 134°30'2 9.6
2018-May-18 03:00N 34°29' E 134°33'6 9.8
2018-May-18 02:21N 34°31' E 134°40'410.9
2018-May-18 01:59N 34°33' E 134°44'611.5
2018-May-18 01:30N 34°35' E 134°51'611.6
2018-May-18 01:00N 34°37' E 134°57'611.1
2018-May-18 00:30N 34°36' E 135°04'5 9.6
2018-May-18 00:01N 34°36' E 135°09'510.0
2018-May-17 23:30N 34°38' E 135°15'3 6.6
2018-May-17 23:01N 34°40' E 135°18'4 6.5
2018-May-17 22:27N 34°43' E 135°21'0 0.1
2018-May-17 21:15N 34°43' E 135°21'0 0.1
2018-May-17 20:51N 34°43' E 135°21'0 0.1
2018-May-17 20:27N 34°43' E 135°21'0 0.0
2018-May-17 18:15N 34°43' E 135°21'0 0.0
2018-May-17 17:57N 34°43' E 135°21'0 0.0
2018-May-17 17:27N 34°43' E 135°21'0 0.0
2018-May-17 16:57N 34°43' E 135°21'0 0.0
2018-May-17 16:30N 34°43' E 135°21'0 0.0
2018-May-17 15:58N 34°43' E 135°21'0 0.0
2018-May-17 15:30N 34°43' E 135°21'0 0.0
2018-May-17 15:00N 34°43' E 135°21'0 0.0
2018-May-17 14:30N 34°43' E 135°21'0 0.0
2018-May-17 14:00N 34°43' E 135°21'0 0.0
2018-May-17 13:28N 34°43' E 135°21'0 0.0
2018-May-17 13:00N 34°43' E 135°21'0 0.0
2018-May-17 12:26N 34°43' E 135°21'0 0.0
2018-May-17 12:00N 34°43' E 135°21'0 0.0
2018-May-17 11:30N 34°43' E 135°21'0 0.0
2018-May-17 11:00N 34°43' E 135°21'0 0.0
2018-May-17 10:30N 34°43' E 135°21'0 0.0
2018-May-17 09:35N 34°43' E 135°21'0 0.2
2018-May-17 09:30N 34°43' E 135°21'1 1.7
2018-May-17 09:00N 34°42' E 135°21'1 1.4
2018-May-17 08:16N 34°42' E 135°20'0 0.3
2018-May-17 07:58N 34°42' E 135°19'1 2.7
2018-May-17 07:30N 34°41' E 135°18'5 9.1
2018-May-17 07:00N 34°36' E 135°19'5 9.2
2018-May-17 06:30N 34°33' E 135°15'5 9.1
2018-May-17 06:00N 34°30' E 135°11'4 8.6
2018-May-17 05:30N 34°26' E 135°08'4 8.5
2018-May-17 05:00N 34°23' E 135°04'4 8.5
2018-May-17 04:30N 34°20' E 135°01'4 7.3
2018-May-17 04:01N 34°16' E 134°59'4 7.6
2018-May-17 03:31N 34°13' E 134°60'5 9.6
2018-May-17 03:01N 34°08' E 135°00'5 9.2
2018-May-17 02:31N 34°03' E 135°01'5 9.5
2018-May-17 02:01N 33°59' E 135°01'6 9.5
2018-May-17 01:25N 33°53' E 135°02'  
Track history (hours):
 
Tides and Currents Weather Stations Pressure Air Temp Water Temp Dewpoint Dewpoint Depression Visibility Wind Speed Wind Dir Waves Ship Positions

Jfe N5 Yahata Maru

Last reported at 2018-May-25 15:42 UTC. Time now 2018-May-25 18:34 UTC.
Position N 34°26' E 134°08'.

Length 149 m; draft 3.2 m.

Type: Other ship. MMSI: 431400594.

Date/timePositionNaut miles runAvg speedWind from/ knotsBaromVisibWave heightAir tempDewpointWater temp
2018-May-25 15:42N 34°26' E 134°08'3 8.4
2018-May-25 15:22N 34°25' E 134°11'3 8.2
2018-May-25 15:00N 34°24' E 134°14'6 9.0
2018-May-25 14:23N 34°25' E 134°21'4 9.2
2018-May-25 14:00N 34°26' E 134°25'4 8.9
2018-May-25 13:30N 34°28' E 134°30'10 9.4
2018-May-25 12:29N 34°32' E 134°40'4 8.9
2018-May-25 12:00N 34°33' E 134°45'510.6
2018-May-25 11:30N 34°35' E 134°51'511.0
2018-May-25 11:00N 34°37' E 134°57'5 9.9
2018-May-25 10:30N 34°36' E 135°03'4 8.9
2018-May-25 10:00N 34°36' E 135°09'5 9.7
2018-May-25 09:31N 34°37' E 135°15'4 8.8
2018-May-25 09:00N 34°40' E 135°18'4 7.2
2018-May-25 08:30N 34°43' E 135°21'0 0.6
2018-May-25 08:00N 34°43' E 135°21'0 0.0
2018-May-25 07:30N 34°43' E 135°21'0 0.0
2018-May-25 06:28N 34°43' E 135°21'0 0.0
2018-May-25 05:52N 34°43' E 135°21'0 0.0
2018-May-25 05:28N 34°43' E 135°21'0 0.0
2018-May-25 04:52N 34°43' E 135°21'0 0.0
2018-May-25 04:28N 34°43' E 135°21'0 0.1
2018-May-25 04:00N 34°43' E 135°21'1 2.1
2018-May-25 03:30N 34°42' E 135°21'1 3.0
2018-May-25 03:00N 34°41' E 135°22'1 2.8
2018-May-25 02:30N 34°39' E 135°21'3 5.9
2018-May-25 02:00N 34°37' E 135°21'4 8.0
2018-May-25 01:30N 34°35' E 135°25'0 0.3
2018-May-25 01:00N 34°35' E 135°26'0 0.0
2018-May-25 00:30N 34°35' E 135°26'0 0.0
2018-May-25 00:00N 34°35' E 135°26'2 3.4
2018-May-24 23:30N 34°36' E 135°24'4 8.3
2018-May-24 23:00N 34°36' E 135°19'1 1.2
2018-May-24 22:30N 34°36' E 135°18'0 0.0
2018-May-24 22:00N 34°36' E 135°18'0 0.0
2018-May-24 21:30N 34°36' E 135°18'0 0.0
2018-May-24 21:00N 34°36' E 135°18'0 0.0
2018-May-24 20:30N 34°36' E 135°18'0 0.0
2018-May-24 20:00N 34°36' E 135°18'0 0.0
2018-May-24 19:30N 34°36' E 135°18'0 0.0
2018-May-24 19:00N 34°36' E 135°18'0 0.0
2018-May-24 18:27N 34°36' E 135°18'0 0.0
2018-May-24 18:00N 34°36' E 135°18'0 0.0
2018-May-24 17:30N 34°36' E 135°18'0 0.0
2018-May-24 17:00N 34°36' E 135°18'0 0.0
2018-May-24 16:27N 34°36' E 135°18'0 0.1
2018-May-24 16:00N 34°36' E 135°18'0 0.1
2018-May-24 15:30N 34°36' E 135°18'0 0.1
2018-May-24 15:00N 34°36' E 135°18'0 0.0
2018-May-24 14:24N 34°35' E 135°18'0 0.1
2018-May-24 13:45N 34°36' E 135°18'0 0.0
2018-May-24 13:30N 34°36' E 135°18'35 7.9
2018-May-24 09:00N 34°03' E 135°00'510.1
2018-May-24 08:30N 33°58' E 135°01'510.0
2018-May-24 07:59N 33°53' E 135°02'228 5.0
2018-May-22 10:41N 34°60' E 139°27'1 6.8
2018-May-22 10:28N 35°01' E 139°28'3 6.5
2018-May-22 10:00N 35°02' E 139°31'4 7.2
2018-May-22 09:30N 35°04' E 139°35'4 8.7
2018-May-22 09:00N 35°06' E 139°40'510.0
2018-May-22 08:30N 35°10' E 139°44'5 9.2
2018-May-22 08:00N 35°14' E 139°46'5 9.4
2018-May-22 07:31N 35°18' E 139°44'5 9.2
2018-May-22 07:01N 35°23' E 139°42'4 8.8
2018-May-22 06:31N 35°27' E 139°43'1 2.4
2018-May-22 06:01N 35°28' E 139°43'0 0.0
2018-May-22 05:28N 35°28' E 139°43'0 0.0
2018-May-22 04:59N 35°28' E 139°43'0 0.0
2018-May-22 04:28N 35°28' E 139°43'0 0.0
2018-May-22 03:58N 35°28' E 139°43'0 0.0
2018-May-22 03:25N 35°28' E 139°43'0 0.0
2018-May-22 02:58N 35°28' E 139°43'0 0.0
2018-May-22 02:28N 35°28' E 139°43'0 0.0
2018-May-22 01:58N 35°28' E 139°43'0 0.0
2018-May-22 01:25N 35°28' E 139°43'0 0.0
2018-May-22 00:58N 35°28' E 139°43'0 0.0
2018-May-22 00:28N 35°28' E 139°43'0 0.0
2018-May-21 23:58N 35°28' E 139°43'0 0.2
2018-May-21 23:30N 35°28' E 139°43'2 4.6
2018-May-21 23:01N 35°27' E 139°45'4 7.5
2018-May-21 22:31N 35°28' E 139°49'4 8.7
2018-May-21 22:00N 35°31' E 139°54'4 8.5
2018-May-21 21:29N 35°32' E 139°59'6 0.5
2018-May-21 08:31N 35°33' E 140°06'0 6.2
2018-May-21 08:30N 35°33' E 140°06'4 7.0
2018-May-21 08:00N 35°33' E 140°02'5 9.5
2018-May-21 07:27N 35°31' E 139°56'4 9.4
2018-May-21 07:00N 35°29' E 139°52'5 9.5
2018-May-21 06:30N 35°25' E 139°48'5 9.1
2018-May-21 06:00N 35°21' E 139°45'4 8.2
2018-May-21 05:31N 35°17' E 139°45'4 7.9
2018-May-21 05:00N 35°14' E 139°47'4 8.1
2018-May-21 04:30N 35°10' E 139°46'4 8.7
2018-May-21 04:00N 35°06' E 139°44'5 9.1
2018-May-21 03:30N 35°03' E 139°39'511.0
2018-May-21 03:00N 34°60' E 139°34'611.2
2018-May-21 02:29N 34°56' E 139°28'229 5.8
2018-May-19 10:46N 33°48' E 135°04'3 9.0
2018-May-19 10:28N 33°50' E 135°02'5 9.0
2018-May-19 09:58N 33°54' E 134°58'4 8.9
2018-May-19 09:29N 33°57' E 134°55'2110.1
2018-May-19 07:26N 34°13' E 134°39'510.2
2018-May-19 06:54N 34°17' E 134°34'4 9.5
2018-May-19 06:29N 34°18' E 134°30'5 9.5
2018-May-19 06:00N 34°20' E 134°25'10 0.4
2018-May-18 04:46N 34°24' E 134°14'6 8.9
2018-May-18 04:06N 34°25' E 134°21'1 9.7
2018-May-18 03:57N 34°25' E 134°22'7 9.7
2018-May-18 03:13N 34°28' E 134°30'2 9.6
2018-May-18 03:00N 34°29' E 134°33'6 9.8
2018-May-18 02:21N 34°31' E 134°40'410.9
2018-May-18 01:59N 34°33' E 134°44'611.5
2018-May-18 01:30N 34°35' E 134°51'611.6
2018-May-18 01:00N 34°37' E 134°57'611.1
2018-May-18 00:30N 34°36' E 135°04'5 9.6
2018-May-18 00:01N 34°36' E 135°09'510.0
2018-May-17 23:30N 34°38' E 135°15'3 6.6
2018-May-17 23:01N 34°40' E 135°18'4 6.5
2018-May-17 22:27N 34°43' E 135°21'0 0.1
2018-May-17 21:15N 34°43' E 135°21'0 0.1
2018-May-17 20:51N 34°43' E 135°21'0 0.1
2018-May-17 20:27N 34°43' E 135°21'0 0.0
2018-May-17 18:15N 34°43' E 135°21'0 0.0
2018-May-17 17:57N 34°43' E 135°21'0 0.0
2018-May-17 17:27N 34°43' E 135°21'0 0.0
2018-May-17 16:57N 34°43' E 135°21'0 0.0
2018-May-17 16:30N 34°43' E 135°21'0 0.0
2018-May-17 15:58N 34°43' E 135°21'0 0.0
2018-May-17 15:30N 34°43' E 135°21'0 0.0
2018-May-17 15:00N 34°43' E 135°21'0 0.0
2018-May-17 14:30N 34°43' E 135°21'0 0.0
2018-May-17 14:00N 34°43' E 135°21'0 0.0
2018-May-17 13:28N 34°43' E 135°21'0 0.0
2018-May-17 13:00N 34°43' E 135°21'0 0.0
2018-May-17 12:26N 34°43' E 135°21'0 0.0
2018-May-17 12:00N 34°43' E 135°21'0 0.0
2018-May-17 11:30N 34°43' E 135°21'0 0.0
2018-May-17 11:00N 34°43' E 135°21'0 0.0
2018-May-17 10:30N 34°43' E 135°21'0 0.0
2018-May-17 09:35N 34°43' E 135°21'0 0.2
2018-May-17 09:30N 34°43' E 135°21'1 1.7
2018-May-17 09:00N 34°42' E 135°21'1 1.4
2018-May-17 08:16N 34°42' E 135°20'0 0.3
2018-May-17 07:58N 34°42' E 135°19'1 2.7
2018-May-17 07:30N 34°41' E 135°18'5 9.1
2018-May-17 07:00N 34°36' E 135°19'5 9.2
2018-May-17 06:30N 34°33' E 135°15'5 9.1
2018-May-17 06:00N 34°30' E 135°11'4 8.6
2018-May-17 05:30N 34°26' E 135°08'4 8.5
2018-May-17 05:00N 34°23' E 135°04'4 8.5
2018-May-17 04:30N 34°20' E 135°01'4 7.3
2018-May-17 04:01N 34°16' E 134°59'4 7.6
2018-May-17 03:31N 34°13' E 134°60'5 9.6
2018-May-17 03:01N 34°08' E 135°00'5 9.2
2018-May-17 02:31N 34°03' E 135°01'5 9.5
2018-May-17 02:01N 33°59' E 135°01'6 9.5
2018-May-17 01:25N 33°53' E 135°02'  

Dump ship's entire track history